Time;durP1;ratioP1;P1;durP2;ratioP2;P2;SDS_P1;SDS_P2;PMS_P1;PMS_P2;Temp;Humidity;BMP_temperature;BMP_pressure;BME280_temperature;BME280_humidity;BME280_pressure;Samples;Min_cycle;Max_cycle;Signal;HPM_P1;HPM_P2
2022/05/01 00:02:30;;;;;;;60.85;42.45;;;;;;;27.15;53.27;97384.22;4833585;29;20060;-67
2022/05/01 00:05:11;;;;;;;67.00;43.10;;;;;;;27.10;50.57;97393.69;4835326;29;20045;-68
2022/05/01 00:08:03;;;;;;;70.25;42.92;;;;;;;27.16;54.34;97392.97;4835508;29;20065;-68
2022/05/01 00:10:45;;;;;;;66.20;42.90;;;;;;;27.12;54.59;97408.41;4832896;29;20046;-67
2022/05/01 00:13:53;;;;;;;64.70;42.85;;;;;;;27.06;53.57;97409.09;4834214;29;20134;-67
2022/05/01 00:16:34;;;;;;;59.58;42.88;;;;;;;27.00;51.30;97408.00;4833783;29;20057;-67
2022/05/01 00:19:24;;;;;;;65.43;42.83;;;;;;;27.01;53.43;97409.66;4832780;29;20054;-67
2022/05/01 00:22:31;;;;;;;57.83;41.15;;;;;;;27.00;55.94;97405.34;4834186;29;20053;-68
2022/05/01 00:25:15;;;;;;;60.40;40.75;;;;;;;27.02;56.39;97407.81;4832671;29;20448;-65
2022/05/01 00:28:04;;;;;;;54.42;39.90;;;;;;;26.98;54.79;97409.19;4833829;29;20064;-65
2022/05/01 00:30:49;;;;;;;60.47;41.08;;;;;;;26.95;55.63;97413.03;4832500;29;20476;-65
2022/05/01 00:36:52;;;;;;;65.72;39.70;;;;;;;26.96;51.70;97433.16;4838281;29;20061;-66
2022/05/01 00:39:40;;;;;;;62.25;36.38;;;;;;;27.01;48.97;97425.50;4818382;29;20050;-66
2022/05/01 00:42:25;;;;;;;53.88;35.97;;;;;;;27.06;53.11;97427.59;4832088;29;20061;-66
2022/05/01 00:45:13;;;;;;;56.10;33.22;;;;;;;27.13;44.85;97428.56;4833347;29;20050;-66
2022/05/01 00:47:56;;;;;;;52.85;29.95;;;;;;;27.20;48.31;97431.28;4833283;29;20538;-66
2022/05/01 00:50:45;;;;;;;43.30;29.20;;;;;;;27.25;48.28;97431.56;4831970;29;20077;-66
2022/05/01 00:53:29;;;;;;;48.17;29.30;;;;;;;27.22;50.87;97432.72;4825611;29;20575;-66
2022/05/01 00:56:19;;;;;;;37.67;27.90;;;;;;;27.25;52.17;97437.66;4821847;29;20546;-66
2022/05/01 00:58:54;;;;;;;43.05;28.88;;;;;;;27.25;49.13;97436.84;4834490;29;20058;-66
2022/05/01 01:01:44;;;;;;;49.70;29.38;;;;;;;27.28;52.10;97437.31;4825624;29;20073;-66
2022/05/01 01:04:40;;;;;;;39.40;27.38;;;;;;;27.33;53.95;97440.22;4832337;29;20405;-66
2022/05/01 01:07:15;;;;;;;48.10;28.52;;;;;;;27.34;46.94;97446.34;4816386;29;20065;-66
2022/05/01 01:10:06;;;;;;;42.88;26.63;;;;;;;27.53;50.76;97450.28;4816672;29;20054;-66
2022/05/01 01:12:54;;;;;;;43.58;27.58;;;;;;;27.57;49.10;97449.75;4834195;29;20054;-66
2022/05/01 01:15:50;;;;;;;39.08;24.98;;;;;;;27.58;47.40;97453.22;4837615;29;20058;-64
2022/05/01 01:18:26;;;;;;;36.97;21.90;;;;;;;27.61;48.72;97455.50;4838662;29;20052;-66
2022/05/01 01:21:16;;;;;;;38.63;24.20;;;;;;;27.72;48.81;97460.31;4838384;29;20130;-66
2022/05/01 01:23:58;;;;;;;47.10;22.38;;;;;;;27.75;47.74;97463.44;4838945;29;20061;-67
2022/05/01 01:26:47;;;;;;;41.00;22.88;;;;;;;27.80;49.36;97466.34;4837078;29;20049;-66
2022/05/01 01:32:39;;;;;;;47.67;24.05;;;;;;;27.92;46.27;97466.72;4838466;29;20061;-66
2022/05/01 01:35:25;;;;;;;49.33;25.58;;;;;;;28.02;44.93;97487.56;4837772;29;20061;-66
2022/05/01 01:38:22;;;;;;;41.85;25.17;;;;;;;28.07;46.85;97479.91;4840211;29;20111;-66
2022/05/01 01:41:20;;;;;;;44.83;24.25;;;;;;;28.11;45.68;97486.47;4836520;29;20056;-67
2022/05/01 01:44:09;;;;;;;39.95;21.50;;;;;;;28.22;47.47;97487.84;4836167;29;20046;-66
2022/05/01 01:46:51;;;;;;;42.13;22.15;;;;;;;28.29;49.17;97484.28;4836368;29;20058;-66
2022/05/01 01:49:39;;;;;;;32.13;19.00;;;;;;;28.38;48.56;97493.75;4837300;29;20062;-66
2022/05/01 01:52:23;;;;;;;32.65;18.08;;;;;;;28.47;47.99;97494.47;4822772;29;20053;-66
2022/05/01 01:55:13;;;;;;;31.77;17.92;;;;;;;28.53;42.79;97506.97;4837797;29;20054;-66
2022/05/01 01:57:55;;;;;;;28.77;17.38;;;;;;;28.64;45.33;97509.13;4838548;29;20054;-66
2022/05/01 02:00:43;;;;;;;31.02;16.88;;;;;;;28.76;44.00;97499.69;4838114;29;20058;-64
2022/05/01 02:03:26;;;;;;;30.15;15.43;;;;;;;28.88;46.57;97505.31;4838006;29;20058;-66
2022/05/01 02:06:14;;;;;;;27.67;16.73;;;;;;;29.03;45.99;97502.56;4853012;29;20049;-66
2022/05/01 02:09:06;;;;;;;24.45;15.80;;;;;;;29.17;44.46;97504.31;4857129;29;20247;-66
2022/05/01 02:11:57;;;;;;;25.58;15.52;;;;;;;29.35;41.90;97502.03;4837946;29;20073;-66
2022/05/01 02:14:38;;;;;;;30.05;15.90;;;;;;;29.70;42.13;97500.22;4837670;29;20058;-66
2022/05/01 02:17:28;;;;;;;32.08;16.98;;;;;;;29.82;40.06;97509.28;4837680;29;20634;-67
2022/05/01 02:20:10;;;;;;;28.63;16.85;;;;;;;30.25;39.53;97506.44;4836714;29;20057;-66
2022/05/01 02:22:59;;;;;;;26.58;16.20;;;;;;;30.60;38.94;97501.84;4837908;29;20074;-68
2022/05/01 02:25:42;;;;;;;37.90;17.58;;;;;;;30.77;39.44;97503.13;4846569;29;20093;-67
2022/05/01 02:32:57;;;;;;;36.47;20.20;;;;;;;31.50;38.32;97509.28;4826233;29;20078;-66
2022/05/01 02:35:47;;;;;;;34.88;20.45;;;;;;;31.81;39.18;97505.97;4837246;29;20445;-65
2022/05/01 02:38:44;;;;;;;33.30;20.23;;;;;;;31.91;38.09;97509.03;4836582;29;20979;-68
2022/05/01 02:41:32;;;;;;;38.10;20.73;;;;;;;32.06;37.59;97512.25;4818777;29;20074;-68
2022/05/01 02:44:15;;;;;;;36.63;21.63;;;;;;;32.47;37.14;97511.06;4818265;29;20046;-68
2022/05/01 02:47:11;;;;;;;38.47;21.02;;;;;;;32.65;37.62;97517.31;4805196;29;20054;-67
2022/05/01 02:49:46;;;;;;;41.67;23.17;;;;;;;32.17;36.84;97527.59;4803734;29;20137;-66
2022/05/01 02:52:35;;;;;;;39.25;23.48;;;;;;;31.74;37.35;97526.50;4815537;29;20459;-66
2022/05/01 02:55:18;;;;;;;37.00;23.40;;;;;;;32.44;37.76;97519.50;4815691;29;20046;-67
2022/05/01 02:58:12;;;;;;;46.50;23.48;;;;;;;32.80;39.14;97517.06;4818235;29;20054;-66
2022/05/01 03:00:48;;;;;;;57.25;24.45;;;;;;;32.32;37.69;97518.53;4816331;29;20050;-66
2022/05/01 03:03:37;;;;;;;40.88;24.77;;;;;;;32.51;37.20;97514.94;4784964;29;20115;-66
2022/05/01 03:06:20;;;;;;;45.33;25.13;;;;;;;32.53;37.48;97521.72;4818251;29;20149;-66
2022/05/01 03:09:09;;;;;;;39.35;25.52;;;;;;;32.91;38.76;97519.03;4818217;29;20046;-66
2022/05/01 03:11:58;;;;;;;51.78;26.23;;;;;;;33.08;38.66;97518.50;4818308;29;20061;-65
2022/05/01 03:14:40;;;;;;;43.03;26.13;;;;;;;33.10;37.81;97517.25;4818239;29;20069;-66
2022/05/01 03:22:10;;;;;;;49.17;26.73;;;;;;;32.57;38.96;97522.91;4818797;29;20644;-65
2022/05/01 03:23:38;;;;;;;42.67;27.30;;;;;;;33.36;36.79;97537.63;4818037;29;20091;-68
2022/05/01 03:26:19;;;;;;;51.75;27.88;;;;;;;33.11;39.18;97539.44;4817662;29;20058;-67
2022/05/01 03:29:09;;;;;;;54.75;27.13;;;;;;;33.01;40.25;97543.41;4817089;29;20050;-67
2022/05/01 03:31:52;;;;;;;43.80;27.75;;;;;;;33.35;38.22;97549.34;4818313;29;20054;-68
2022/05/01 03:34:42;;;;;;;48.50;29.00;;;;;;;33.47;37.99;97544.91;4817807;29;20431;-67
2022/05/01 03:37:24;;;;;;;51.08;29.85;;;;;;;33.74;38.76;97558.88;4817881;29;20054;-68
2022/05/01 03:40:21;;;;;;;54.50;29.90;;;;;;;33.76;40.61;97552.25;4824878;29;20053;-68
2022/05/01 03:42:56;;;;;;;51.88;30.63;;;;;;;33.93;38.91;97555.16;4831474;29;20081;-68
2022/05/01 03:45:45;;;;;;;55.47;29.48;;;;;;;33.80;37.09;97558.81;4827387;29;20118;-67
2022/05/01 03:48:28;;;;;;;49.40;28.67;;;;;;;33.93;38.70;97554.34;4827194;29;20507;-67
2022/05/01 03:51:17;;;;;;;47.28;30.05;;;;;;;34.00;39.62;97553.25;4826366;29;20054;-68
2022/05/01 03:54:09;;;;;;;49.03;31.77;;;;;;;33.46;37.39;97553.94;4825551;29;20150;-67
2022/05/01 03:56:51;;;;;;;53.97;31.48;;;;;;;33.61;39.20;97553.59;4824928;29;20150;-67
2022/05/01 03:59:40;;;;;;;63.83;31.33;;;;;;;33.72;39.00;97550.22;4826616;29;20071;-67
2022/05/01 04:02:22;;;;;;;49.42;29.65;;;;;;;34.26;40.98;97549.47;4826867;29;20691;-67
2022/05/01 04:05:13;;;;;;;57.88;30.95;;;;;;;33.96;37.70;97560.06;4809569;29;20498;-67
2022/05/01 04:07:55;;;;;;;55.65;30.98;;;;;;;34.25;38.66;97553.19;4826711;29;20053;-67
2022/05/01 04:10:47;;;;;;;66.82;31.98;;;;;;;35.01;38.59;97560.66;4826892;29;20127;-67
2022/05/01 04:13:28;;;;;;;53.65;30.30;;;;;;;34.94;40.02;97551.91;4832875;29;20122;-67
2022/05/01 04:16:18;;;;;;;66.72;33.15;;;;;;;35.21;38.67;97553.09;4845565;29;20049;-68
2022/05/01 04:19:11;;;;;;;57.42;32.42;;;;;;;34.62;37.83;97556.66;4835033;29;20136;-68
2022/05/01 04:22:01;;;;;;;61.90;31.33;;;;;;;35.26;39.68;97550.59;4833855;29;20098;-68
2022/05/01 04:24:42;;;;;;;51.85;30.38;;;;;;;35.65;38.15;97554.47;4846268;29;20485;-67
2022/05/01 04:27:32;;;;;;;65.70;32.33;;;;;;;35.29;37.87;97555.47;4841908;29;20084;-68
2022/05/01 04:30:15;;;;;;;63.25;31.77;;;;;;;35.50;38.61;97564.03;4835062;29;20049;-68
2022/05/01 04:33:16;;;;;;;49.90;31.85;;;;;;;35.26;38.78;97560.50;4835134;29;20057;-68
2022/05/01 04:36:05;;;;;;;58.90;31.55;;;;;;;35.17;39.10;97561.84;4835089;29;20126;-67
2022/05/01 04:38:48;;;;;;;55.15;31.40;;;;;;;35.86;37.76;97565.66;4832516;29;20237;-67
2022/05/01 04:41:44;;;;;;;56.97;31.75;;;;;;;35.91;37.26;97571.97;4816472;29;20046;-68
2022/05/01 04:44:19;;;;;;;66.70;30.70;;;;;;;36.00;37.03;97559.00;4815381;29;20655;-66
2022/05/01 04:47:08;;;;;;;61.40;31.45;;;;;;;36.38;36.75;97556.63;4809394;29;20119;-65
2022/05/01 04:49:51;;;;;;;66.65;32.72;;;;;;;36.33;36.70;97566.44;4808089;29;20153;-69
2022/05/01 04:52:46;;;;;;;62.33;31.63;;;;;;;36.32;36.92;97562.16;4808900;29;20051;-67
2022/05/01 04:55:22;;;;;;;54.10;31.83;;;;;;;36.25;37.14;97558.75;4815702;29;20066;-67
2022/05/01 04:58:12;;;;;;;57.22;31.45;;;;;;;36.56;36.98;97561.00;4815763;29;20141;-66
2022/05/01 05:00:55;;;;;;;68.03;33.50;;;;;;;36.43;37.03;97570.16;4815975;29;20058;-68
2022/05/01 05:03:50;;;;;;;52.33;34.92;;;;;;;36.78;37.42;97564.69;4814189;29;20059;-66
2022/05/01 05:06:26;;;;;;;65.38;35.35;;;;;;;36.51;35.53;97562.78;4815417;29;20062;-66
2022/05/01 05:12:23;;;;;;;59.30;35.33;;;;;;;36.70;39.28;97565.06;4813940;29;20062;-65
2022/05/01 05:15:16;;;;;;;68.63;36.17;;;;;;;36.98;40.96;97564.22;4817294;29;20440;-66
2022/05/01 05:17:58;;;;;;;72.40;39.97;;;;;;;36.54;35.97;97552.38;4798711;29;20671;-66
2022/05/01 05:20:48;;;;;;;66.65;38.55;;;;;;;36.58;35.83;97563.44;4807232;29;20058;-67
2022/05/01 05:23:29;;;;;;;64.68;39.53;;;;;;;36.56;37.06;97555.63;4816778;29;20062;-65
2022/05/01 05:26:25;;;;;;;64.22;37.30;;;;;;;36.74;38.25;97560.03;4815817;29;20068;-66
2022/05/01 05:29:00;;;;;;;70.00;37.47;;;;;;;36.82;36.72;97559.63;4814287;29;20149;-67
2022/05/01 05:31:56;;;;;;;72.13;40.25;;;;;;;36.44;37.15;97552.19;4816185;29;20058;-65
2022/05/01 05:34:32;;;;;;;70.95;38.92;;;;;;;36.45;35.87;97551.13;4816510;29;20058;-65
2022/05/01 05:37:22;;;;;;;66.38;38.22;;;;;;;36.45;37.53;97556.50;4816726;29;20066;-65
2022/05/01 05:40:18;;;;;;;63.00;37.88;;;;;;;36.52;36.13;97550.97;4830379;29;20070;-65
2022/05/01 05:43:13;;;;;;;57.28;37.72;;;;;;;36.75;36.34;97554.41;4835754;29;20052;-65
2022/05/01 05:46:08;;;;;;;61.03;35.63;;;;;;;36.94;36.66;97541.59;4833754;29;20050;-66
2022/05/01 05:48:43;;;;;;;67.75;35.90;;;;;;;37.05;38.66;97537.19;4832094;29;20110;-66
2022/05/01 05:51:31;;;;;;;66.22;38.78;;;;;;;37.12;39.02;97533.28;4830376;29;20117;-65
2022/05/01 05:54:14;;;;;;;63.50;40.55;;;;;;;37.06;37.83;97534.28;4834446;29;20149;-65
2022/05/01 05:57:10;;;;;;;67.85;41.58;;;;;;;37.17;37.65;97530.75;4834268;29;20057;-66
2022/05/01 05:59:45;;;;;;;73.60;40.35;;;;;;;37.00;36.13;97523.69;4833632;29;20263;-66
2022/05/01 06:02:44;;;;;;;65.57;39.25;;;;;;;37.04;38.90;97520.25;4827995;29;20172;-66
2022/05/01 06:05:27;;;;;;;79.22;42.42;;;;;;;37.22;39.25;97513.88;4838012;29;20081;-64
2022/05/01 06:08:15;;;;;;;61.72;41.00;;;;;;;37.31;39.18;97517.78;4837422;29;20070;-66
2022/05/01 06:10:58;;;;;;;72.65;41.13;;;;;;;37.31;39.66;97509.72;4836315;29;20058;-65
2022/05/01 06:13:47;;;;;;;64.38;40.85;;;;;;;37.32;38.15;97505.97;4834879;29;20073;-66
2022/05/01 06:16:31;;;;;;;65.45;38.22;;;;;;;37.48;38.89;97502.47;4837073;29;20415;-66
2022/05/01 06:19:27;;;;;;;67.13;35.85;;;;;;;37.33;38.38;97501.41;4836650;29;20065;-65
2022/05/01 06:22:02;;;;;;;82.40;35.30;;;;;;;37.33;37.26;97501.41;4828099;29;20134;-66
2022/05/01 06:24:58;;;;;;;72.38;35.55;;;;;;;37.36;35.81;97499.03;4856275;29;20061;-65
2022/05/01 06:27:33;;;;;;;65.35;35.85;;;;;;;37.28;37.16;97499.44;4826586;29;20063;-65
2022/05/01 06:30:30;;;;;;;60.08;35.38;;;;;;;37.35;35.53;97497.44;4842664;29;20057;-65
2022/05/01 06:33:10;;;;;;;64.68;36.40;;;;;;;37.42;35.97;97494.56;4828605;29;20057;-66
2022/05/01 06:36:07;;;;;;;63.25;35.15;;;;;;;37.29;34.94;97493.03;4833475;29;20050;-64
2022/05/01 06:38:43;;;;;;;76.22;35.78;;;;;;;37.48;37.05;97493.56;4844512;29;20045;-66
2022/05/01 06:41:38;;;;;;;65.38;34.67;;;;;;;37.36;35.67;97499.03;4855403;29;20125;-64
2022/05/01 06:44:34;;;;;;;62.88;31.85;;;;;;;37.31;36.64;97496.28;4835652;29;20061;-64
2022/05/01 06:47:23;;;;;;;60.38;32.53;;;;;;;37.37;37.65;97492.59;4837395;29;20123;-66
2022/05/01 06:50:12;;;;;;;69.80;31.05;;;;;;;37.40;35.70;97492.13;4836689;29;20081;-63
2022/05/01 06:52:54;;;;;;;51.42;33.45;;;;;;;37.74;39.80;97492.91;4837838;29;20555;-64
2022/05/01 06:55:44;;;;;;;56.88;32.10;;;;;;;37.74;37.26;97498.28;4834579;29;20057;-67
2022/05/01 06:58:31;;;;;;;55.97;33.50;;;;;;;37.59;34.58;97499.94;4836879;29;20432;-64
2022/05/01 07:01:20;;;;;;;61.53;33.45;;;;;;;37.64;35.00;97491.94;4830772;29;20489;-64
2022/05/01 07:04:09;;;;;;;61.70;34.47;;;;;;;37.55;34.61;97484.28;4835604;29;20054;-64
2022/05/01 07:06:51;;;;;;;65.80;34.13;;;;;;;37.63;33.96;97479.56;4835992;29;20105;-63
2022/05/01 07:09:40;;;;;;;61.28;33.33;;;;;;;37.67;34.16;97480.72;4836598;29;20701;-64
2022/05/01 07:12:30;;;;;;;55.58;32.42;;;;;;;37.76;34.40;97473.81;4833084;29;20068;-63
2022/05/01 07:15:12;;;;;;;60.55;33.00;;;;;;;37.78;36.60;97471.69;4834701;29;20576;-63
2022/05/01 07:18:01;;;;;;;59.40;31.77;;;;;;;37.89;37.06;97450.06;4817147;29;20081;-63
2022/05/01 07:20:44;;;;;;;55.15;32.65;;;;;;;37.96;36.56;97457.94;4835975;29;20054;-64
2022/05/01 07:23:33;;;;;;;61.13;34.83;;;;;;;37.81;34.60;97447.00;4819626;29;20146;-63
2022/05/01 07:26:22;;;;;;;70.30;34.55;;;;;;;37.84;36.52;97444.59;4835842;29;20130;-64
2022/05/01 07:29:04;;;;;;;63.42;34.03;;;;;;;37.84;38.25;97446.47;4835091;29;20045;-64
2022/05/01 07:31:52;;;;;;;55.72;32.67;;;;;;;37.87;36.38;97437.94;4834478;29;20054;-66
2022/05/01 07:34:28;;;;;;;61.33;33.40;;;;;;;37.92;35.79;97436.09;4834867;29;20135;-65
2022/05/01 07:37:20;;;;;;;76.47;33.42;;;;;;;37.89;36.19;97430.44;4835384;29;20057;-63
2022/05/01 07:40:02;;;;;;;62.97;32.33;;;;;;;37.93;36.86;97429.66;4833924;29;20049;-66
2022/05/01 07:42:59;;;;;;;64.72;31.42;;;;;;;37.96;34.68;97431.03;4834508;29;20050;-64
2022/05/01 07:45:48;;;;;;;58.63;28.98;;;;;;;37.97;33.18;97426.47;4835505;29;20058;-64
2022/05/01 07:48:37;;;;;;;58.50;25.92;;;;;;;37.97;32.26;97421.91;4835679;29;20127;-65
2022/05/01 07:51:25;;;;;;;47.65;29.17;;;;;;;37.95;34.06;97421.34;4834626;29;20058;-64
2022/05/01 07:54:09;;;;;;;39.35;26.02;;;;;;;37.97;36.68;97419.22;4832914;29;20135;-64
2022/05/01 07:56:59;;;;;;;43.88;25.42;;;;;;;37.99;35.64;97411.72;4835108;29;20081;-64
2022/05/01 07:59:49;;;;;;;49.42;26.08;;;;;;;37.87;35.17;97417.22;4834797;29;20066;-64
2022/05/01 08:04:28;;;;;;;;;;;;;;;37.86;33.00;97409.41;4834742;29;20058;-65
2022/05/01 08:05:46;;;;;;;;;;;;;;;37.81;34.91;97398.59;4834815;29;19928;-63
2022/05/01 08:08:33;;;;;;;52.92;28.38;;;;;;;37.70;35.51;97394.13;4833861;29;19932;-65
2022/05/01 08:11:22;;;;;;;54.55;28.20;;;;;;;37.72;31.96;97387.47;4835158;29;20076;-63
2022/05/01 08:14:03;;;;;;;54.13;27.08;;;;;;;37.81;33.72;97379.75;4818483;29;20061;-63
2022/05/01 08:16:56;;;;;;;56.40;28.70;;;;;;;37.80;34.07;97380.81;4806051;29;20161;-64
2022/05/01 08:22:51;;;;;;;40.85;25.90;;;;;;;37.71;34.62;97363.50;4835633;29;20054;-65
2022/05/01 08:25:48;;;;;;;54.78;28.10;;;;;;;37.66;34.09;97355.38;4830706;29;20064;-64
2022/05/01 08:28:24;;;;;;;51.95;27.40;;;;;;;37.61;36.46;97352.63;4832656;29;20050;-65
2022/05/01 08:31:14;;;;;;;65.07;29.17;;;;;;;37.65;33.91;97343.00;4833121;29;20158;-65
2022/05/01 08:33:56;;;;;;;50.42;29.20;;;;;;;37.65;35.04;97341.13;4818064;29;20053;-64
2022/05/01 08:36:45;;;;;;;64.30;29.52;;;;;;;37.70;36.06;97329.59;4834039;29;20483;-66
2022/05/01 08:39:35;;;;;;;56.63;29.00;;;;;;;37.53;37.18;97319.72;4833979;29;20414;-65
2022/05/01 08:42:34;;;;;;;48.45;29.25;;;;;;;37.49;33.95;97323.97;4833131;29;20054;-65
2022/05/01 08:45:32;;;;;;;52.72;28.70;;;;;;;37.46;34.79;97320.97;4815250;29;20394;-65
2022/05/01 08:49:05;;;;;;;63.83;27.08;;;;;;;37.47;35.83;97307.28;4813795;29;20137;-65
2022/05/01 08:51:41;;;;;;;50.65;26.83;;;;;;;37.46;32.57;97318.28;4812021;29;20098;-63
2022/05/01 08:54:32;;;;;;;52.65;27.58;;;;;;;37.58;33.20;97307.41;4801009;29;20082;-63
2022/05/01 08:57:27;;;;;;;52.33;27.30;;;;;;;37.46;36.41;97296.78;4813767;29;20387;-64
2022/05/01 09:00:10;;;;;;;52.40;26.88;;;;;;;37.34;35.97;97294.25;4813811;29;20475;-64
2022/05/01 09:03:00;;;;;;;52.00;28.15;;;;;;;37.30;39.56;97284.22;4813265;29;20116;-63
2022/05/01 09:05:42;;;;;;;67.25;29.63;;;;;;;37.33;33.51;97286.41;4812866;29;20120;-63
2022/05/01 09:08:31;;;;;;;52.35;28.60;;;;;;;37.32;34.88;97269.47;4813942;29;20058;-62
2022/05/01 09:14:21;;;;;;;56.40;28.70;;;;;;;37.45;34.33;97274.47;4806348;29;20145;-67
2022/05/01 09:17:18;;;;;;;50.85;26.88;;;;;;;37.65;31.53;97265.03;4814317;29;20487;-63
2022/05/01 09:20:15;;;;;;;44.13;25.20;;;;;;;37.68;33.70;97269.88;4797729;29;20058;-64
2022/05/01 09:23:20;;;;;;;45.08;24.08;;;;;;;37.42;35.10;97258.84;4811477;29;20395;-65
2022/05/01 09:26:24;;;;;;;42.60;24.58;;;;;;;37.27;39.43;97250.63;4812959;29;20682;-64
2022/05/01 09:28:59;;;;;;;37.00;23.00;;;;;;;37.11;39.05;97246.09;4812915;29;20058;-62
2022/05/01 09:31:48;;;;;;;43.55;24.30;;;;;;;37.04;36.81;97240.06;4814203;29;20081;-65
2022/05/01 09:34:43;;;;;;;36.80;22.83;;;;;;;37.27;31.09;97253.31;4813797;29;20560;-63
2022/05/01 09:37:25;;;;;;;40.60;21.60;;;;;;;37.28;31.31;97241.47;4817311;29;20105;-63
2022/05/01 09:40:15;;;;;;;39.40;21.73;;;;;;;37.37;33.62;97236.47;4483637;29;10001210;-62
2022/05/01 09:43:04;;;;;;;45.47;22.90;;;;;;;37.29;32.50;97237.72;4781533;29;20449;-63
2022/05/01 09:45:46;;;;;;;38.47;24.00;;;;;;;37.14;35.26;97229.50;4813021;29;20109;-64
2022/05/01 09:48:43;;;;;;;52.65;25.13;;;;;;;37.20;35.78;97231.16;4828680;29;20086;-64
2022/05/01 09:51:42;;;;;;;58.08;25.38;;;;;;;36.99;38.21;97221.22;4815859;29;20107;-64
2022/05/01 09:54:43;;;;;;;52.72;23.00;;;;;;;37.24;33.75;97213.50;4830851;29;20143;-62
2022/05/01 09:57:39;;;;;;;39.92;22.02;;;;;;;37.06;34.36;97216.47;4831521;29;20053;-63
2022/05/01 10:00:41;;;;;;;42.95;21.55;;;;;;;37.00;34.04;97207.56;4835060;29;20053;-63
2022/05/01 10:03:34;;;;;;;48.75;24.17;;;;;;;36.91;32.52;97210.91;4816843;29;20127;-63
2022/05/01 10:06:31;;;;;;;54.40;24.13;;;;;;;36.89;34.34;97200.41;4817331;29;20070;-65
2022/05/01 10:09:07;;;;;;;43.78;24.17;;;;;;;36.78;35.78;97198.69;4818106;29;20061;-66
2022/05/01 10:11:58;;;;;;;42.33;25.58;;;;;;;36.70;36.41;97191.88;4836402;29;20483;-65
2022/05/01 10:14:49;;;;;;;40.20;23.65;;;;;;;36.74;33.23;97193.00;4836610;29;20051;-65
2022/05/01 10:17:33;;;;;;;38.50;23.63;;;;;;;36.70;36.71;97188.38;4835348;29;20050;-67
2022/05/01 10:20:23;;;;;;;45.38;23.50;;;;;;;36.58;36.42;97184.94;4834299;29;20068;-65
2022/05/01 10:23:12;;;;;;;50.25;23.98;;;;;;;36.49;36.53;97181.88;4818075;29;20163;-65
2022/05/01 10:25:57;;;;;;;49.92;20.98;;;;;;;36.36;37.90;97179.56;4832730;29;20078;-65
2022/05/01 10:29:33;;;;;;;37.67;22.13;;;;;;;36.26;36.41;97169.50;4833664;29;20050;-68
2022/05/01 10:32:36;;;;;;;46.00;21.55;;;;;;;36.14;36.27;97170.63;4834027;29;20054;-67
2022/05/01 10:36:03;;;;;;;36.22;21.55;;;;;;;35.99;40.01;97163.97;4832815;29;20116;-66
2022/05/01 10:39:19;;;;;;;40.03;22.95;;;;;;;35.86;39.77;97161.63;4831509;29;20117;-67
2022/05/01 10:42:02;;;;;;;39.78;22.17;;;;;;;35.71;40.39;97153.34;4818599;29;20118;-68
2022/05/01 10:44:51;;;;;;;46.58;23.77;;;;;;;35.63;40.93;97154.50;4832818;29;20479;-66
2022/05/01 10:47:42;;;;;;;37.47;21.98;;;;;;;35.62;42.72;97146.72;4830969;29;20064;-64
2022/05/01 10:50:34;;;;;;;47.30;23.17;;;;;;;35.55;40.33;97146.06;4833597;29;20554;-66
2022/05/01 10:53:16;;;;;;;43.95;22.13;;;;;;;35.51;42.03;97147.63;4832954;29;20570;-65
2022/05/01 10:56:30;;;;;;;44.08;22.00;;;;;;;35.44;41.93;97146.97;4832650;29;20683;-67
2022/05/01 10:59:48;;;;;;;48.10;22.23;;;;;;;35.36;42.89;97144.69;4797891;29;20054;-64
2022/05/01 11:02:45;;;;;;;45.10;22.23;;;;;;;35.28;41.25;97143.97;4816455;29;20146;-67
2022/05/01 11:06:01;;;;;;;38.90;22.50;;;;;;;35.23;40.45;97137.72;4816571;29;20105;-66
2022/05/01 11:08:58;;;;;;;40.70;24.13;;;;;;;35.18;39.42;97134.94;4777376;29;20542;-66
2022/05/01 11:11:47;;;;;;;39.33;23.63;;;;;;;35.15;41.44;97130.06;4777831;29;20051;-66
2022/05/01 11:15:19;;;;;;;42.55;23.73;;;;;;;35.11;42.69;97132.41;4814840;29;20430;-66
2022/05/01 11:18:03;;;;;;;44.60;22.73;;;;;;;35.03;43.20;97124.78;4816258;29;20699;-66
2022/05/01 11:20:52;;;;;;;60.05;24.67;;;;;;;34.94;43.42;97123.53;4801655;29;20054;-67
2022/05/01 11:23:40;;;;;;;53.85;25.42;;;;;;;34.89;45.64;97120.72;4815270;29;20165;-66
2022/05/01 11:26:29;;;;;;;57.75;29.20;;;;;;;34.82;47.32;97117.38;4815725;29;20058;-66
2022/05/01 11:29:21;;;;;;;42.15;26.63;;;;;;;34.74;46.52;97118.56;4815674;29;20055;-65
2022/05/01 11:32:21;;;;;;;45.53;25.65;;;;;;;34.66;49.13;97124.28;4817043;29;20141;-66
2022/05/01 11:35:12;;;;;;;48.25;25.35;;;;;;;34.60;49.03;97121.72;4791727;29;20055;-67
2022/05/01 11:38:01;;;;;;;43.55;24.98;;;;;;;34.51;50.06;97110.59;4814450;29;20081;-66
2022/05/01 11:41:02;;;;;;;43.25;23.98;;;;;;;34.45;49.03;97109.69;4814594;29;20046;-66
2022/05/01 11:43:44;;;;;;;48.83;25.15;;;;;;;34.40;49.92;97106.09;4815252;29;20059;-66
2022/05/01 11:46:37;;;;;;;43.08;24.60;;;;;;;34.31;53.12;97104.81;4816473;29;20664;-66
2022/05/01 11:49:24;;;;;;;38.00;24.88;;;;;;;34.29;49.08;97107.72;4816523;29;20050;-65
2022/05/01 11:52:15;;;;;;;48.22;23.55;;;;;;;34.27;47.69;97104.47;4817177;29;20054;-66
2022/05/01 11:54:59;;;;;;;36.85;23.00;;;;;;;34.25;50.16;97101.22;4817026;29;20054;-65
2022/05/01 12:04:32;;;;;;;38.50;23.23;;;;;;;34.13;53.02;97103.06;4832934;29;20119;-65
2022/05/01 12:07:23;;;;;;;45.55;24.67;;;;;;;34.05;51.30;97096.22;4833326;29;20050;-66
2022/05/01 12:10:12;;;;;;;44.88;23.40;;;;;;;34.02;49.15;97103.88;4829430;29;20061;-68
2022/05/01 12:13:01;;;;;;;50.97;23.67;;;;;;;34.00;50.77;97106.81;4834887;29;20139;-65
2022/05/01 12:15:58;;;;;;;39.42;23.08;;;;;;;33.95;57.03;97093.31;4831244;29;20054;-67
2022/05/01 12:18:50;;;;;;;34.88;24.27;;;;;;;33.91;54.53;97091.34;4829575;29;20761;-67
2022/05/01 12:21:40;;;;;;;43.25;25.05;;;;;;;33.87;55.78;97098.19;4834249;29;20057;-66
2022/05/01 12:24:22;;;;;;;39.42;23.90;;;;;;;33.85;58.50;97086.91;4835331;29;20193;-67
2022/05/01 12:27:14;;;;;;;51.25;27.08;;;;;;;33.78;52.39;97084.34;4834857;29;20053;-66
2022/05/01 12:30:00;;;;;;;49.28;24.65;;;;;;;33.79;57.91;97089.47;4835536;29;20053;-68
2022/05/01 12:33:00;;;;;;;41.17;26.27;;;;;;;33.69;57.84;97083.84;4845344;29;20054;-70
2022/05/01 12:35:59;;;;;;;38.88;25.33;;;;;;;33.60;58.50;97081.78;4827222;29;20152;-70
2022/05/01 12:38:42;;;;;;;42.55;25.55;;;;;;;33.55;63.79;97077.13;4834938;29;20053;-69
2022/05/01 12:45:09;;;;;;;53.78;26.73;;;;;;;33.46;54.48;97081.16;4834728;29;20077;-71
2022/05/01 12:48:10;;;;;;;51.33;26.02;;;;;;;33.42;63.28;97075.50;4833030;29;20470;-68
2022/05/01 12:50:55;;;;;;;42.97;23.50;;;;;;;33.34;63.42;97083.84;4838732;29;20639;-68
2022/05/01 12:53:44;;;;;;;47.30;24.50;;;;;;;33.31;64.48;97086.13;4835673;29;20064;-67
2022/05/01 12:56:31;;;;;;;40.58;24.65;;;;;;;33.26;64.27;97092.19;4817226;29;20068;-67
2022/05/01 12:59:33;;;;;;;52.30;26.25;;;;;;;33.24;55.17;97090.75;4485705;29;9999924;-67
2022/05/01 13:02:19;;;;;;;46.05;25.35;;;;;;;33.19;62.98;97082.59;4832724;29;20149;-68
2022/05/01 13:05:08;;;;;;;43.25;25.02;;;;;;;33.12;58.30;97092.56;4835137;29;20159;-69
2022/05/01 13:07:52;;;;;;;48.83;26.42;;;;;;;33.07;58.09;97085.22;4831534;29;20382;-68
2022/05/01 13:10:41;;;;;;;46.05;24.98;;;;;;;33.02;58.88;97088.59;4814429;29;20058;-67
2022/05/01 13:13:23;;;;;;;49.63;28.25;;;;;;;32.97;59.85;97091.13;4837864;29;20077;-67
2022/05/01 13:16:12;;;;;;;41.10;26.33;;;;;;;32.94;61.32;97091.59;4825275;29;20818;-67
2022/05/01 13:18:56;;;;;;;46.53;27.58;;;;;;;32.89;61.72;97096.75;4838073;29;20046;-65
2022/05/01 13:21:56;;;;;;;44.25;27.35;;;;;;;32.80;64.48;97095.47;4835901;29;20103;-71
2022/05/01 13:24:36;;;;;;;48.80;26.92;;;;;;;32.79;66.10;97099.19;4835293;29;20158;-67
2022/05/01 13:27:26;;;;;;;60.45;27.48;;;;;;;32.72;68.43;97103.78;4835399;29;20054;-67
2022/05/01 13:30:16;;;;;;;46.38;26.65;;;;;;;32.65;66.11;97109.16;4836234;29;20140;-67
2022/05/01 13:32:58;;;;;;;47.72;27.35;;;;;;;32.65;69.45;97113.66;4836176;29;20058;-69